sensor_id;sensor_type;location;lat;lon;timestamp;P1;durP1;ratioP1;P2;durP2;ratioP2
68993;SDS011;56054;50.968;5.816;2022-10-31T00:06:39;28.17;;;13.68;;
68993;SDS011;56054;50.968;5.816;2022-10-31T00:09:46;27.23;;;13.15;;
68993;SDS011;56054;50.968;5.816;2022-10-31T00:12:53;26.52;;;13.70;;
68993;SDS011;56054;50.968;5.816;2022-10-31T00:16:00;27.70;;;13.05;;
68993;SDS011;56054;50.968;5.816;2022-10-31T00:19:07;29.60;;;13.85;;
68993;SDS011;56054;50.968;5.816;2022-10-31T00:22:15;28.00;;;13.63;;
68993;SDS011;56054;50.968;5.816;2022-10-31T00:25:27;24.95;;;12.48;;
68993;SDS011;56054;50.968;5.816;2022-10-31T00:28:39;26.88;;;12.77;;
68993;SDS011;56054;50.968;5.816;2022-10-31T00:35:58;25.17;;;13.32;;
68993;SDS011;56054;50.968;5.816;2022-10-31T00:39:06;26.42;;;13.90;;
68993;SDS011;56054;50.968;5.816;2022-10-31T00:42:14;27.00;;;14.60;;
68993;SDS011;56054;50.968;5.816;2022-10-31T00:45:23;26.88;;;14.07;;
68993;SDS011;56054;50.968;5.816;2022-10-31T00:48:30;30.90;;;14.68;;
68993;SDS011;56054;50.968;5.816;2022-10-31T00:51:37;27.55;;;13.85;;
68993;SDS011;56054;50.968;5.816;2022-10-31T00:54:45;31.00;;;13.82;;
68993;SDS011;56054;50.968;5.816;2022-10-31T00:57:52;25.38;;;13.30;;
68993;SDS011;56054;50.968;5.816;2022-10-31T01:05:08;31.48;;;13.50;;
68993;SDS011;56054;50.968;5.816;2022-10-31T01:08:15;22.52;;;14.18;;
68993;SDS011;56054;50.968;5.816;2022-10-31T01:11:22;26.48;;;14.02;;
68993;SDS011;56054;50.968;5.816;2022-10-31T01:14:30;35.53;;;14.18;;
68993;SDS011;56054;50.968;5.816;2022-10-31T01:17:37;25.13;;;13.40;;
68993;SDS011;56054;50.968;5.816;2022-10-31T01:20:45;23.98;;;13.52;;
68993;SDS011;56054;50.968;5.816;2022-10-31T01:23:52;25.00;;;13.60;;
68993;SDS011;56054;50.968;5.816;2022-10-31T01:27:02;31.60;;;13.98;;
68993;SDS011;56054;50.968;5.816;2022-10-31T01:30:09;26.38;;;13.90;;
68993;SDS011;56054;50.968;5.816;2022-10-31T01:37:26;26.50;;;13.43;;
68993;SDS011;56054;50.968;5.816;2022-10-31T01:40:34;25.55;;;12.70;;
68993;SDS011;56054;50.968;5.816;2022-10-31T01:43:51;24.83;;;13.82;;
68993;SDS011;56054;50.968;5.816;2022-10-31T01:47:13;23.55;;;12.60;;
68993;SDS011;56054;50.968;5.816;2022-10-31T01:50:27;27.02;;;12.38;;
68993;SDS011;56054;50.968;5.816;2022-10-31T01:53:38;29.13;;;13.10;;
68993;SDS011;56054;50.968;5.816;2022-10-31T01:56:51;28.38;;;12.80;;
68993;SDS011;56054;50.968;5.816;2022-10-31T02:00:03;30.45;;;12.32;;
68993;SDS011;56054;50.968;5.816;2022-10-31T02:07:34;23.88;;;11.73;;
68993;SDS011;56054;50.968;5.816;2022-10-31T02:10:46;25.23;;;13.43;;
68993;SDS011;56054;50.968;5.816;2022-10-31T02:13:53;23.15;;;13.32;;
68993;SDS011;56054;50.968;5.816;2022-10-31T02:17:06;26.75;;;12.30;;
68993;SDS011;56054;50.968;5.816;2022-10-31T02:20:17;24.48;;;12.35;;
68993;SDS011;56054;50.968;5.816;2022-10-31T02:30:23;30.13;;;12.13;;
68993;SDS011;56054;50.968;5.816;2022-10-31T02:44:36;28.25;;;12.30;;
68993;SDS011;56054;50.968;5.816;2022-10-31T02:47:58;23.77;;;12.30;;
68993;SDS011;56054;50.968;5.816;2022-10-31T02:51:11;24.52;;;10.90;;
68993;SDS011;56054;50.968;5.816;2022-10-31T02:54:25;23.65;;;12.10;;
68993;SDS011;56054;50.968;5.816;2022-10-31T02:57:33;22.65;;;11.40;;
68993;SDS011;56054;50.968;5.816;2022-10-31T03:08:24;20.95;;;11.52;;
68993;SDS011;56054;50.968;5.816;2022-10-31T03:12:11;24.60;;;11.98;;
68993;SDS011;56054;50.968;5.816;2022-10-31T03:15:27;19.55;;;11.43;;
68993;SDS011;56054;50.968;5.816;2022-10-31T03:19:02;21.02;;;10.38;;
68993;SDS011;56054;50.968;5.816;2022-10-31T03:22:39;22.00;;;10.48;;
68993;SDS011;56054;50.968;5.816;2022-10-31T03:25:48;26.02;;;11.45;;
68993;SDS011;56054;50.968;5.816;2022-10-31T03:29:01;22.48;;;11.82;;
68993;SDS011;56054;50.968;5.816;2022-10-31T03:48:34;26.48;;;11.43;;
68993;SDS011;56054;50.968;5.816;2022-10-31T03:55:12;23.00;;;10.80;;
68993;SDS011;56054;50.968;5.816;2022-10-31T03:58:35;20.02;;;10.77;;
68993;SDS011;56054;50.968;5.816;2022-10-31T04:18:28;23.48;;;10.27;;
68993;SDS011;56054;50.968;5.816;2022-10-31T04:21:36;24.45;;;10.40;;
68993;SDS011;56054;50.968;5.816;2022-10-31T04:24:44;22.52;;;10.10;;
68993;SDS011;56054;50.968;5.816;2022-10-31T04:27:52;23.10;;;11.52;;
68993;SDS011;56054;50.968;5.816;2022-10-31T04:35:08;23.25;;;9.90;;
68993;SDS011;56054;50.968;5.816;2022-10-31T04:38:15;19.58;;;9.23;;
68993;SDS011;56054;50.968;5.816;2022-10-31T04:41:23;24.02;;;10.68;;
68993;SDS011;56054;50.968;5.816;2022-10-31T04:44:35;21.23;;;10.27;;
68993;SDS011;56054;50.968;5.816;2022-10-31T04:47:42;20.17;;;9.93;;
68993;SDS011;56054;50.968;5.816;2022-10-31T04:50:49;17.02;;;9.63;;
68993;SDS011;56054;50.968;5.816;2022-10-31T04:53:56;17.63;;;9.13;;
68993;SDS011;56054;50.968;5.816;2022-10-31T04:57:21;24.33;;;9.75;;
68993;SDS011;56054;50.968;5.816;2022-10-31T05:00:36;30.15;;;9.65;;
68993;SDS011;56054;50.968;5.816;2022-10-31T05:08:19;21.02;;;9.32;;
68993;SDS011;56054;50.968;5.816;2022-10-31T05:11:27;17.20;;;10.43;;
68993;SDS011;56054;50.968;5.816;2022-10-31T05:14:46;23.67;;;10.02;;
68993;SDS011;56054;50.968;5.816;2022-10-31T05:18:28;18.27;;;9.00;;
68993;SDS011;56054;50.968;5.816;2022-10-31T05:21:54;17.02;;;8.43;;
68993;SDS011;56054;50.968;5.816;2022-10-31T05:25:03;18.13;;;9.43;;
68993;SDS011;56054;50.968;5.816;2022-10-31T05:28:10;22.17;;;9.57;;
68993;SDS011;56054;50.968;5.816;2022-10-31T05:35:46;21.27;;;8.63;;
68993;SDS011;56054;50.968;5.816;2022-10-31T05:39:03;15.02;;;9.07;;
68993;SDS011;56054;50.968;5.816;2022-10-31T05:42:23;24.05;;;8.75;;
68993;SDS011;56054;50.968;5.816;2022-10-31T05:45:31;15.35;;;8.35;;
68993;SDS011;56054;50.968;5.816;2022-10-31T05:48:59;19.10;;;9.38;;
68993;SDS011;56054;50.968;5.816;2022-10-31T05:52:28;19.10;;;8.95;;
68993;SDS011;56054;50.968;5.816;2022-10-31T05:55:55;20.75;;;8.27;;
68993;SDS011;56054;50.968;5.816;2022-10-31T05:59:03;19.13;;;9.40;;
68993;SDS011;56054;50.968;5.816;2022-10-31T06:06:58;24.73;;;9.87;;
68993;SDS011;56054;50.968;5.816;2022-10-31T06:10:07;27.13;;;12.67;;
68993;SDS011;56054;50.968;5.816;2022-10-31T06:13:14;24.17;;;10.02;;
68993;SDS011;56054;50.968;5.816;2022-10-31T06:16:48;21.13;;;10.10;;
68993;SDS011;56054;50.968;5.816;2022-10-31T06:20:15;15.98;;;9.38;;
68993;SDS011;56054;50.968;5.816;2022-10-31T06:23:40;21.63;;;9.17;;
68993;SDS011;56054;50.968;5.816;2022-10-31T06:27:18;19.60;;;9.00;;
68993;SDS011;56054;50.968;5.816;2022-10-31T06:30:26;14.53;;;8.83;;
68993;SDS011;56054;50.968;5.816;2022-10-31T06:37:51;18.73;;;9.53;;
68993;SDS011;56054;50.968;5.816;2022-10-31T06:41:11;23.13;;;9.57;;
68993;SDS011;56054;50.968;5.816;2022-10-31T06:44:21;22.00;;;9.40;;
68993;SDS011;56054;50.968;5.816;2022-10-31T06:47:28;16.37;;;8.60;;
68993;SDS011;56054;50.968;5.816;2022-10-31T06:50:39;26.07;;;9.50;;
68993;SDS011;56054;50.968;5.816;2022-10-31T06:54:23;17.47;;;8.73;;
68993;SDS011;56054;50.968;5.816;2022-10-31T06:57:34;25.80;;;11.07;;
68993;SDS011;56054;50.968;5.816;2022-10-31T07:39:36;20.67;;;9.23;;
68993;SDS011;56054;50.968;5.816;2022-10-31T07:42:44;23.17;;;11.00;;
68993;SDS011;56054;50.968;5.816;2022-10-31T07:46:27;22.13;;;10.80;;
68993;SDS011;56054;50.968;5.816;2022-10-31T07:50:07;18.43;;;9.63;;
68993;SDS011;56054;50.968;5.816;2022-10-31T07:53:35;22.77;;;10.87;;
68993;SDS011;56054;50.968;5.816;2022-10-31T07:56:56;26.40;;;11.57;;
68993;SDS011;56054;50.968;5.816;2022-10-31T08:00:29;24.90;;;12.07;;
68993;SDS011;56054;50.968;5.816;2022-10-31T08:36:58;38.63;;;18.90;;
68993;SDS011;56054;50.968;5.816;2022-10-31T08:40:13;38.27;;;18.30;;
68993;SDS011;56054;50.968;5.816;2022-10-31T08:43:20;38.33;;;18.67;;
68993;SDS011;56054;50.968;5.816;2022-10-31T08:46:27;38.10;;;18.98;;
68993;SDS011;56054;50.968;5.816;2022-10-31T08:49:34;38.03;;;18.90;;
68993;SDS011;56054;50.968;5.816;2022-10-31T08:52:43;45.25;;;19.60;;
68993;SDS011;56054;50.968;5.816;2022-10-31T08:55:54;51.28;;;20.27;;
68993;SDS011;56054;50.968;5.816;2022-10-31T08:59:03;45.50;;;20.00;;
68993;SDS011;56054;50.968;5.816;2022-10-31T09:06:54;38.03;;;17.50;;
68993;SDS011;56054;50.968;5.816;2022-10-31T09:10:01;39.25;;;18.13;;
68993;SDS011;56054;50.968;5.816;2022-10-31T09:13:12;35.60;;;17.73;;
68993;SDS011;56054;50.968;5.816;2022-10-31T09:16:21;48.47;;;17.90;;
68993;SDS011;56054;50.968;5.816;2022-10-31T09:19:28;37.65;;;17.02;;
68993;SDS011;56054;50.968;5.816;2022-10-31T09:22:35;35.03;;;16.63;;
68993;SDS011;56054;50.968;5.816;2022-10-31T09:25:44;42.08;;;16.58;;
68993;SDS011;56054;50.968;5.816;2022-10-31T09:29:04;38.28;;;15.85;;
68993;SDS011;56054;50.968;5.816;2022-10-31T09:36:22;40.13;;;15.65;;
68993;SDS011;56054;50.968;5.816;2022-10-31T09:39:30;34.85;;;15.02;;
68993;SDS011;56054;50.968;5.816;2022-10-31T09:42:55;34.22;;;15.02;;
68993;SDS011;56054;50.968;5.816;2022-10-31T09:50:14;31.02;;;14.45;;
68993;SDS011;56054;50.968;5.816;2022-10-31T09:56:42;36.25;;;15.23;;
68993;SDS011;56054;50.968;5.816;2022-10-31T09:59:54;37.80;;;16.52;;
68993;SDS011;56054;50.968;5.816;2022-10-31T10:11:17;33.78;;;15.15;;
68993;SDS011;56054;50.968;5.816;2022-10-31T10:24:57;30.40;;;16.17;;
68993;SDS011;56054;50.968;5.816;2022-10-31T10:28:16;33.00;;;14.93;;
68993;SDS011;56054;50.968;5.816;2022-10-31T10:35:58;38.13;;;14.45;;
68993;SDS011;56054;50.968;5.816;2022-10-31T10:39:09;32.53;;;15.85;;
68993;SDS011;56054;50.968;5.816;2022-10-31T10:42:24;28.52;;;15.48;;
68993;SDS011;56054;50.968;5.816;2022-10-31T10:46:03;33.10;;;14.35;;
68993;SDS011;56054;50.968;5.816;2022-10-31T10:49:31;36.90;;;14.95;;
68993;SDS011;56054;50.968;5.816;2022-10-31T10:56:39;31.08;;;14.75;;
68993;SDS011;56054;50.968;5.816;2022-10-31T10:59:54;31.38;;;15.23;;
68993;SDS011;56054;50.968;5.816;2022-10-31T11:07:12;36.30;;;14.70;;
68993;SDS011;56054;50.968;5.816;2022-10-31T11:10:19;34.75;;;14.05;;
68993;SDS011;56054;50.968;5.816;2022-10-31T11:13:26;34.75;;;15.02;;
68993;SDS011;56054;50.968;5.816;2022-10-31T11:16:39;27.45;;;13.88;;
68993;SDS011;56054;50.968;5.816;2022-10-31T11:19:48;32.50;;;14.00;;
68993;SDS011;56054;50.968;5.816;2022-10-31T11:23:24;28.33;;;13.13;;
68993;SDS011;56054;50.968;5.816;2022-10-31T11:26:32;29.73;;;13.40;;
68993;SDS011;56054;50.968;5.816;2022-10-31T11:29:39;32.88;;;14.18;;
68993;SDS011;56054;50.968;5.816;2022-10-31T11:41:13;31.20;;;12.93;;
68993;SDS011;56054;50.968;5.816;2022-10-31T11:44:26;30.13;;;11.82;;
68993;SDS011;56054;50.968;5.816;2022-10-31T11:47:35;34.50;;;12.13;;
68993;SDS011;56054;50.968;5.816;2022-10-31T11:50:47;33.75;;;11.70;;
68993;SDS011;56054;50.968;5.816;2022-10-31T11:53:59;26.73;;;10.93;;
68993;SDS011;56054;50.968;5.816;2022-10-31T11:57:29;31.70;;;11.30;;
68993;SDS011;56054;50.968;5.816;2022-10-31T12:00:38;25.17;;;10.65;;
68993;SDS011;56054;50.968;5.816;2022-10-31T12:08:40;25.98;;;10.43;;
68993;SDS011;56054;50.968;5.816;2022-10-31T12:24:32;28.17;;;9.77;;
68993;SDS011;56054;50.968;5.816;2022-10-31T12:31:36;17.08;;;8.30;;
68993;SDS011;56054;50.968;5.816;2022-10-31T12:38:30;20.75;;;8.82;;
68993;SDS011;56054;50.968;5.816;2022-10-31T13:01:35;28.13;;;8.70;;
68993;SDS011;56054;50.968;5.816;2022-10-31T13:04:50;20.65;;;8.20;;
68993;SDS011;56054;50.968;5.816;2022-10-31T13:08:05;20.58;;;8.77;;
68993;SDS011;56054;50.968;5.816;2022-10-31T13:11:20;18.90;;;8.50;;
68993;SDS011;56054;50.968;5.816;2022-10-31T13:22:16;27.23;;;7.85;;
68993;SDS011;56054;50.968;5.816;2022-10-31T13:25:46;15.18;;;6.43;;
68993;SDS011;56054;50.968;5.816;2022-10-31T13:29:04;17.55;;;6.57;;
68993;SDS011;56054;50.968;5.816;2022-10-31T13:32:19;14.25;;;6.63;;
68993;SDS011;56054;50.968;5.816;2022-10-31T13:35:32;21.42;;;6.82;;
68993;SDS011;56054;50.968;5.816;2022-10-31T13:54:50;12.57;;;5.97;;
68993;SDS011;56054;50.968;5.816;2022-10-31T13:57:58;12.27;;;6.85;;
68993;SDS011;56054;50.968;5.816;2022-10-31T14:01:21;12.57;;;5.95;;
68993;SDS011;56054;50.968;5.816;2022-10-31T14:04:33;25.50;;;6.30;;
68993;SDS011;56054;50.968;5.816;2022-10-31T14:08:02;17.73;;;5.65;;
68993;SDS011;56054;50.968;5.816;2022-10-31T14:11:18;17.75;;;6.30;;
68993;SDS011;56054;50.968;5.816;2022-10-31T14:18:40;17.25;;;5.10;;
68993;SDS011;56054;50.968;5.816;2022-10-31T14:21:52;16.65;;;5.07;;
68993;SDS011;56054;50.968;5.816;2022-10-31T14:28:46;16.25;;;4.38;;
68993;SDS011;56054;50.968;5.816;2022-10-31T14:35:13;14.50;;;6.13;;
68993;SDS011;56054;50.968;5.816;2022-10-31T14:38:33;10.40;;;4.75;;
68993;SDS011;56054;50.968;5.816;2022-10-31T14:49:59;15.25;;;4.90;;
68993;SDS011;56054;50.968;5.816;2022-10-31T14:53:34;13.35;;;4.32;;
68993;SDS011;56054;50.968;5.816;2022-10-31T14:56:49;19.92;;;4.28;;
68993;SDS011;56054;50.968;5.816;2022-10-31T15:00:07;12.77;;;4.18;;
68993;SDS011;56054;50.968;5.816;2022-10-31T15:03:22;14.15;;;4.43;;
68993;SDS011;56054;50.968;5.816;2022-10-31T15:06:45;12.23;;;4.47;;
68993;SDS011;56054;50.968;5.816;2022-10-31T15:09:59;13.40;;;4.68;;
68993;SDS011;56054;50.968;5.816;2022-10-31T15:13:17;18.67;;;4.72;;
68993;SDS011;56054;50.968;5.816;2022-10-31T15:16:34;11.25;;;3.72;;
68993;SDS011;56054;50.968;5.816;2022-10-31T15:19:44;16.35;;;3.90;;
68993;SDS011;56054;50.968;5.816;2022-10-31T15:26:39;15.02;;;4.05;;
68993;SDS011;56054;50.968;5.816;2022-10-31T15:29:52;11.80;;;3.80;;
68993;SDS011;56054;50.968;5.816;2022-10-31T15:33:00;10.23;;;3.72;;
68993;SDS011;56054;50.968;5.816;2022-10-31T15:36:18;16.08;;;4.00;;
68993;SDS011;56054;50.968;5.816;2022-10-31T15:39:29;12.85;;;3.55;;
68993;SDS011;56054;50.968;5.816;2022-10-31T15:42:39;11.32;;;3.38;;
68993;SDS011;56054;50.968;5.816;2022-10-31T15:45:47;10.38;;;3.90;;
68993;SDS011;56054;50.968;5.816;2022-10-31T15:48:54;9.00;;;4.15;;
68993;SDS011;56054;50.968;5.816;2022-10-31T15:52:13;14.90;;;3.58;;
68993;SDS011;56054;50.968;5.816;2022-10-31T15:55:56;12.82;;;3.85;;
68993;SDS011;56054;50.968;5.816;2022-10-31T15:59:13;15.88;;;4.10;;
68993;SDS011;56054;50.968;5.816;2022-10-31T16:02:32;15.48;;;4.13;;
68993;SDS011;56054;50.968;5.816;2022-10-31T16:05:50;10.85;;;3.90;;
68993;SDS011;56054;50.968;5.816;2022-10-31T16:09:04;14.05;;;4.13;;
68993;SDS011;56054;50.968;5.816;2022-10-31T16:12:34;13.30;;;4.13;;
68993;SDS011;56054;50.968;5.816;2022-10-31T16:15:55;9.50;;;4.30;;
68993;SDS011;56054;50.968;5.816;2022-10-31T16:19:16;18.95;;;4.07;;
68993;SDS011;56054;50.968;5.816;2022-10-31T16:22:30;12.73;;;3.45;;
68993;SDS011;56054;50.968;5.816;2022-10-31T16:26:14;11.30;;;4.38;;
68993;SDS011;56054;50.968;5.816;2022-10-31T16:32:56;14.35;;;4.20;;
68993;SDS011;56054;50.968;5.816;2022-10-31T16:39:40;14.93;;;4.60;;
68993;SDS011;56054;50.968;5.816;2022-10-31T16:42:48;10.65;;;4.43;;
68993;SDS011;56054;50.968;5.816;2022-10-31T16:45:58;8.95;;;4.45;;
68993;SDS011;56054;50.968;5.816;2022-10-31T16:49:08;16.05;;;4.32;;
68993;SDS011;56054;50.968;5.816;2022-10-31T16:52:16;15.18;;;4.50;;
68993;SDS011;56054;50.968;5.816;2022-10-31T16:55:23;17.02;;;4.80;;
68993;SDS011;56054;50.968;5.816;2022-10-31T16:58:34;15.00;;;4.30;;
68993;SDS011;56054;50.968;5.816;2022-10-31T17:01:42;13.18;;;5.53;;
68993;SDS011;56054;50.968;5.816;2022-10-31T17:04:57;8.15;;;4.13;;
68993;SDS011;56054;50.968;5.816;2022-10-31T17:08:03;21.08;;;4.72;;
68993;SDS011;56054;50.968;5.816;2022-10-31T17:11:15;10.63;;;5.07;;
68993;SDS011;56054;50.968;5.816;2022-10-31T17:14:33;14.18;;;5.53;;
68993;SDS011;56054;50.968;5.816;2022-10-31T17:17:45;18.48;;;4.25;;
68993;SDS011;56054;50.968;5.816;2022-10-31T17:21:02;18.67;;;5.88;;
68993;SDS011;56054;50.968;5.816;2022-10-31T17:24:29;15.43;;;4.55;;
68993;SDS011;56054;50.968;5.816;2022-10-31T17:27:35;21.77;;;4.95;;
68993;SDS011;56054;50.968;5.816;2022-10-31T17:30:48;11.65;;;4.85;;
68993;SDS011;56054;50.968;5.816;2022-10-31T17:33:56;14.52;;;4.55;;
68993;SDS011;56054;50.968;5.816;2022-10-31T17:37:04;12.52;;;3.80;;
68993;SDS011;56054;50.968;5.816;2022-10-31T17:40:12;13.88;;;5.10;;
68993;SDS011;56054;50.968;5.816;2022-10-31T17:43:22;11.85;;;4.75;;
68993;SDS011;56054;50.968;5.816;2022-10-31T17:46:54;12.82;;;4.22;;
68993;SDS011;56054;50.968;5.816;2022-10-31T17:50:01;14.30;;;5.05;;
68993;SDS011;56054;50.968;5.816;2022-10-31T17:57:21;17.73;;;6.03;;
68993;SDS011;56054;50.968;5.816;2022-10-31T18:00:28;20.52;;;6.10;;
68993;SDS011;56054;50.968;5.816;2022-10-31T18:03:38;13.60;;;5.32;;
68993;SDS011;56054;50.968;5.816;2022-10-31T18:06:49;12.48;;;4.45;;
68993;SDS011;56054;50.968;5.816;2022-10-31T18:09:55;12.93;;;5.28;;
68993;SDS011;56054;50.968;5.816;2022-10-31T18:13:03;14.40;;;5.93;;
68993;SDS011;56054;50.968;5.816;2022-10-31T18:16:19;13.50;;;4.40;;
68993;SDS011;56054;50.968;5.816;2022-10-31T18:19:30;11.50;;;3.65;;
68993;SDS011;56054;50.968;5.816;2022-10-31T18:26:55;10.80;;;3.60;;
68993;SDS011;56054;50.968;5.816;2022-10-31T18:30:14;10.10;;;3.75;;
68993;SDS011;56054;50.968;5.816;2022-10-31T18:37:57;10.35;;;5.05;;
68993;SDS011;56054;50.968;5.816;2022-10-31T18:57:48;6.78;;;2.97;;
68993;SDS011;56054;50.968;5.816;2022-10-31T19:00:55;13.45;;;3.15;;
68993;SDS011;56054;50.968;5.816;2022-10-31T19:04:02;7.95;;;2.45;;
68993;SDS011;56054;50.968;5.816;2022-10-31T19:07:09;8.80;;;2.58;;
68993;SDS011;56054;50.968;5.816;2022-10-31T19:26:58;4.60;;;1.83;;
68993;SDS011;56054;50.968;5.816;2022-10-31T19:30:06;6.72;;;2.50;;
68993;SDS011;56054;50.968;5.816;2022-10-31T19:33:14;8.82;;;2.17;;
68993;SDS011;56054;50.968;5.816;2022-10-31T19:36:21;12.25;;;2.80;;
68993;SDS011;56054;50.968;5.816;2022-10-31T19:39:29;6.72;;;2.95;;
68993;SDS011;56054;50.968;5.816;2022-10-31T19:42:38;10.38;;;2.75;;
68993;SDS011;56054;50.968;5.816;2022-10-31T19:46:01;8.55;;;2.85;;
68993;SDS011;56054;50.968;5.816;2022-10-31T19:49:11;12.38;;;2.75;;
68993;SDS011;56054;50.968;5.816;2022-10-31T19:52:18;11.02;;;2.53;;
68993;SDS011;56054;50.968;5.816;2022-10-31T19:55:26;15.00;;;3.55;;
68993;SDS011;56054;50.968;5.816;2022-10-31T19:58:39;9.07;;;2.58;;
68993;SDS011;56054;50.968;5.816;2022-10-31T20:01:47;9.02;;;2.88;;
68993;SDS011;56054;50.968;5.816;2022-10-31T20:04:58;16.05;;;2.58;;
68993;SDS011;56054;50.968;5.816;2022-10-31T20:08:06;12.63;;;2.95;;
68993;SDS011;56054;50.968;5.816;2022-10-31T20:11:13;7.00;;;2.45;;
68993;SDS011;56054;50.968;5.816;2022-10-31T20:14:21;8.30;;;2.58;;
68993;SDS011;56054;50.968;5.816;2022-10-31T20:17:27;8.60;;;2.60;;
68993;SDS011;56054;50.968;5.816;2022-10-31T20:20:34;11.40;;;2.60;;
68993;SDS011;56054;50.968;5.816;2022-10-31T20:23:42;7.28;;;2.83;;
68993;SDS011;56054;50.968;5.816;2022-10-31T20:26:53;7.93;;;2.75;;
68993;SDS011;56054;50.968;5.816;2022-10-31T20:30:00;8.00;;;3.20;;
68993;SDS011;56054;50.968;5.816;2022-10-31T20:33:06;9.23;;;3.22;;
68993;SDS011;56054;50.968;5.816;2022-10-31T20:36:14;6.70;;;2.60;;
68993;SDS011;56054;50.968;5.816;2022-10-31T20:39:21;6.68;;;2.78;;
68993;SDS011;56054;50.968;5.816;2022-10-31T21:07:04;12.57;;;2.70;;
68993;SDS011;56054;50.968;5.816;2022-10-31T21:35:11;13.05;;;3.92;;
68993;SDS011;56054;50.968;5.816;2022-10-31T21:38:18;12.23;;;3.80;;
68993;SDS011;56054;50.968;5.816;2022-10-31T21:41:26;13.43;;;3.10;;
68993;SDS011;56054;50.968;5.816;2022-10-31T21:44:39;11.80;;;3.53;;
68993;SDS011;56054;50.968;5.816;2022-10-31T21:47:49;15.00;;;3.10;;
68993;SDS011;56054;50.968;5.816;2022-10-31T21:51:00;6.57;;;2.72;;
68993;SDS011;56054;50.968;5.816;2022-10-31T21:54:16;10.68;;;3.25;;
68993;SDS011;56054;50.968;5.816;2022-10-31T21:57:30;11.30;;;3.63;;
68993;SDS011;56054;50.968;5.816;2022-10-31T22:00:39;15.82;;;3.20;;
68993;SDS011;56054;50.968;5.816;2022-10-31T22:03:47;9.52;;;3.30;;
68993;SDS011;56054;50.968;5.816;2022-10-31T22:06:54;7.03;;;3.20;;
68993;SDS011;56054;50.968;5.816;2022-10-31T22:10:28;10.82;;;3.08;;
68993;SDS011;56054;50.968;5.816;2022-10-31T22:13:54;17.42;;;4.13;;
68993;SDS011;56054;50.968;5.816;2022-10-31T22:17:19;8.75;;;3.53;;
68993;SDS011;56054;50.968;5.816;2022-10-31T22:20:29;18.33;;;3.17;;
68993;SDS011;56054;50.968;5.816;2022-10-31T22:27:48;11.85;;;3.63;;
68993;SDS011;56054;50.968;5.816;2022-10-31T22:31:02;13.85;;;3.22;;
68993;SDS011;56054;50.968;5.816;2022-10-31T22:34:12;14.13;;;3.67;;
68993;SDS011;56054;50.968;5.816;2022-10-31T22:37:24;12.63;;;3.17;;
68993;SDS011;56054;50.968;5.816;2022-10-31T22:40:35;14.80;;;3.50;;
68993;SDS011;56054;50.968;5.816;2022-10-31T22:43:44;9.48;;;3.17;;
68993;SDS011;56054;50.968;5.816;2022-10-31T22:46:51;9.23;;;3.13;;
68993;SDS011;56054;50.968;5.816;2022-10-31T22:49:59;13.45;;;3.53;;
68993;SDS011;56054;50.968;5.816;2022-10-31T22:57:15;9.60;;;2.85;;
68993;SDS011;56054;50.968;5.816;2022-10-31T23:00:23;18.55;;;3.67;;
68993;SDS011;56054;50.968;5.816;2022-10-31T23:03:55;12.75;;;3.00;;
68993;SDS011;56054;50.968;5.816;2022-10-31T23:07:02;11.02;;;3.80;;
68993;SDS011;56054;50.968;5.816;2022-10-31T23:10:08;13.88;;;3.75;;
68993;SDS011;56054;50.968;5.816;2022-10-31T23:13:15;12.45;;;3.25;;
68993;SDS011;56054;50.968;5.816;2022-10-31T23:16:25;8.32;;;3.20;;
68993;SDS011;56054;50.968;5.816;2022-10-31T23:19:33;10.80;;;3.13;;
68993;SDS011;56054;50.968;5.816;2022-10-31T23:22:40;7.57;;;2.65;;
68993;SDS011;56054;50.968;5.816;2022-10-31T23:25:47;15.10;;;3.45;;
68993;SDS011;56054;50.968;5.816;2022-10-31T23:28:53;13.70;;;2.90;;
68993;SDS011;56054;50.968;5.816;2022-10-31T23:32:01;5.15;;;2.83;;
68993;SDS011;56054;50.968;5.816;2022-10-31T23:35:09;8.90;;;2.63;;
68993;SDS011;56054;50.968;5.816;2022-10-31T23:38:19;11.85;;;3.17;;
68993;SDS011;56054;50.968;5.816;2022-10-31T23:44:40;11.45;;;3.00;;
68993;SDS011;56054;50.968;5.816;2022-10-31T23:47:48;7.82;;;2.60;;
68993;SDS011;56054;50.968;5.816;2022-10-31T23:51:00;6.43;;;2.70;;
68993;SDS011;56054;50.968;5.816;2022-10-31T23:54:15;7.50;;;2.72;;
68993;SDS011;56054;50.968;5.816;2022-10-31T23:57:29;7.60;;;2.88;;
